Time;durP1;ratioP1;P1;durP2;ratioP2;P2;SDS_P1;SDS_P2;PMS_P1;PMS_P2;Temp;Humidity;BMP_temperature;BMP_pressure;BME280_temperature;BME280_humidity;BME280_pressure;Samples;Min_cycle;Max_cycle;Signal;HPM_P1;HPM_P2
2021/05/29 00:02:13;;;;;;;12.20;9.30;;;;;;;16.86;99.02;99224.59;1565122;89;21071;-73
2021/05/29 00:04:40;;;;;;;16.60;10.38;;;;;;;16.86;98.90;99221.88;1548425;90;21028;-72
2021/05/29 00:07:06;;;;;;;13.25;9.08;;;;;;;16.82;98.38;99226.31;1572454;90;21007;-73
2021/05/29 00:09:33;;;;;;;24.92;8.83;;;;;;;16.82;98.38;99224.14;1586632;89;21011;-72
2021/05/29 00:12:02;;;;;;;12.28;9.95;;;;;;;16.73;97.81;99218.62;1586880;89;21635;-74
2021/05/29 00:14:30;;;;;;;16.05;9.70;;;;;;;16.63;97.83;99213.38;1584317;89;20971;-73
2021/05/29 00:16:58;;;;;;;17.20;9.80;;;;;;;16.66;98.32;99205.17;1585218;89;20996;-73
2021/05/29 00:19:25;;;;;;;13.35;10.65;;;;;;;16.62;98.05;99201.45;1562158;90;21084;-72
2021/05/29 00:21:51;;;;;;;14.33;10.28;;;;;;;16.61;98.22;99203.91;1548402;91;21071;-72
2021/05/29 00:24:18;;;;;;;14.35;10.23;;;;;;;16.56;98.09;99200.16;1548473;91;21711;-72
2021/05/29 00:26:45;;;;;;;9.70;8.75;;;;;;;16.59;98.56;99199.35;1548961;91;21159;-73
2021/05/29 00:29:12;;;;;;;12.33;8.80;;;;;;;16.66;98.66;99193.77;1569224;90;21580;-72
2021/05/29 00:31:38;;;;;;;15.08;9.78;;;;;;;16.55;97.62;99193.11;1585545;89;21640;-72
2021/05/29 00:34:04;;;;;;;10.15;9.15;;;;;;;16.39;97.82;99189.10;1567004;90;20988;-74
2021/05/29 00:36:31;;;;;;;11.33;9.35;;;;;;;16.33;97.89;99197.62;1572593;90;20987;-74
2021/05/29 00:38:57;;;;;;;10.80;9.23;;;;;;;16.24;98.05;99199.42;1572296;90;21624;-71
2021/05/29 00:41:25;;;;;;;16.75;12.05;;;;;;;16.18;98.40;99197.89;1586625;89;21095;-72
2021/05/29 00:43:53;;;;;;;14.53;10.40;;;;;;;16.14;98.84;99189.00;1586808;90;21036;-74
2021/05/29 00:46:19;;;;;;;13.43;11.63;;;;;;;16.14;99.16;99191.72;1572488;90;20960;-73
2021/05/29 00:48:45;;;;;;;13.50;11.78;;;;;;;16.19;99.38;99177.80;1572504;90;21079;-72
2021/05/29 00:51:14;;;;;;;10.32;8.95;;;;;;;16.24;99.75;99178.52;1586810;90;20984;-73
2021/05/29 00:53:40;;;;;;;10.93;9.83;;;;;;;16.34;99.81;99182.95;1586629;90;21695;-77
2021/05/29 00:56:07;;;;;;;13.60;10.68;;;;;;;16.27;99.07;99180.63;1563812;90;22576;-73
2021/05/29 00:58:34;;;;;;;17.30;12.30;;;;;;;16.13;98.79;99178.44;1548917;91;21076;-73
2021/05/29 01:01:00;;;;;;;12.58;11.28;;;;;;;16.02;99.00;99175.64;1542974;90;21074;-73
2021/05/29 01:03:28;;;;;;;13.53;11.57;;;;;;;16.00;99.54;99175.96;1540965;91;21062;-72
2021/05/29 01:05:54;;;;;;;12.95;11.08;;;;;;;16.04;99.83;99174.27;1610058;88;21014;-72
2021/05/29 01:08:24;;;;;;;21.93;12.70;;;;;;;16.05;99.61;99175.06;1604917;89;21096;-73
2021/05/29 01:10:51;;;;;;;15.23;13.08;;;;;;;16.00;99.48;99172.44;1601129;89;21096;-72
2021/05/29 01:13:21;;;;;;;11.78;10.55;;;;;;;15.93;99.41;99178.79;1607762;89;21132;-72
2021/05/29 01:15:48;;;;;;;12.85;11.45;;;;;;;15.87;99.36;99171.86;1587181;89;21062;-72
2021/05/29 01:18:17;;;;;;;13.58;10.68;;;;;;;15.77;99.52;99167.41;1597603;89;21609;-73
2021/05/29 01:20:46;;;;;;;21.23;12.18;;;;;;;15.70;99.91;99171.84;1609014;89;21848;-74
2021/05/29 01:23:14;;;;;;;18.62;12.75;;;;;;;15.62;100.00;99158.98;1591715;89;21061;-73
2021/05/29 01:25:47;;;;;;;16.87;12.70;;;;;;;15.56;100.00;99150.66;1564230;90;21133;-72
2021/05/29 01:28:21;;;;;;;16.07;13.45;;;;;;;15.53;100.00;99151.81;1583417;90;21616;-75
2021/05/29 01:30:50;;;;;;;18.80;14.38;;;;;;;15.53;100.00;99158.59;1584502;86;21108;-73
2021/05/29 01:33:24;;;;;;;18.67;13.38;;;;;;;15.51;100.00;99154.81;1534843;92;21110;-73
2021/05/29 01:35:53;;;;;;;16.27;12.47;;;;;;;15.55;100.00;99151.76;1583418;88;21056;-74
2021/05/29 01:38:21;;;;;;;24.45;17.52;;;;;;;15.55;100.00;99144.17;1578457;90;21013;-75
2021/05/29 01:40:47;;;;;;;22.82;17.05;;;;;;;15.58;100.00;99149.83;1575134;90;21097;-73
2021/05/29 01:43:13;;;;;;;19.25;14.90;;;;;;;15.57;100.00;99150.92;1555112;91;21083;-74
2021/05/29 01:45:42;;;;;;;22.25;16.50;;;;;;;15.59;100.00;99150.61;1578385;89;21048;-74
2021/05/29 01:48:10;;;;;;;18.95;15.83;;;;;;;15.60;100.00;99161.71;1560954;91;21625;-74
2021/05/29 01:50:49;;;;;;;19.92;16.42;;;;;;;15.63;100.00;99157.85;1552099;92;20971;-74
2021/05/29 01:53:18;;;;;;;21.85;15.05;;;;;;;15.65;100.00;99152.95;1553786;91;21257;-73
2021/05/29 01:55:47;;;;;;;19.23;15.05;;;;;;;15.70;100.00;99146.09;1584513;89;20998;-73
2021/05/29 01:58:15;;;;;;;17.90;14.38;;;;;;;15.78;100.00;99147.89;1576309;89;22310;-72
2021/05/29 02:00:42;;;;;;;19.70;14.13;;;;;;;15.80;100.00;99149.19;1531630;93;21233;-73
2021/05/29 02:03:08;;;;;;;18.65;13.85;;;;;;;15.79;100.00;99150.28;1561386;90;21072;-73
2021/05/29 02:05:35;;;;;;;21.60;14.60;;;;;;;15.81;100.00;99145.38;1585003;89;21660;-73
2021/05/29 02:08:07;;;;;;;17.30;12.80;;;;;;;15.85;100.00;99138.80;1585592;89;20982;-75
2021/05/29 02:10:34;;;;;;;16.65;13.50;;;;;;;15.86;100.00;99143.12;1585893;90;21687;-73
2021/05/29 02:13:04;;;;;;;16.27;13.50;;;;;;;15.85;100.00;99137.45;1585628;89;21049;-74
2021/05/29 02:15:34;;;;;;;15.75;14.10;;;;;;;15.82;100.00;99141.57;1571491;90;21131;-74
2021/05/29 02:18:05;;;;;;;16.48;11.68;;;;;;;15.76;100.00;99135.97;1585896;90;21045;-74
2021/05/29 02:21:05;;;;;;;16.80;13.25;;;;;;;15.72;100.00;99134.96;1574322;90;21084;-72
2021/05/29 02:23:32;;;;;;;17.62;13.53;;;;;;;15.69;100.00;99139.60;1561437;90;21175;-72
2021/05/29 02:26:03;;;;;;;13.18;11.80;;;;;;;15.65;100.00;99133.17;1570306;90;21002;-76
2021/05/29 02:28:34;;;;;;;18.00;15.30;;;;;;;15.63;100.00;99132.67;1572053;90;21986;-73
2021/05/29 02:31:02;;;;;;;15.60;12.73;;;;;;;15.62;100.00;99135.94;1587103;89;21625;-72
2021/05/29 02:33:29;;;;;;;13.83;12.43;;;;;;;15.62;100.00;99134.58;1586854;90;21120;-73
2021/05/29 02:35:57;;;;;;;14.95;12.60;;;;;;;15.59;100.00;99133.80;1572671;90;21121;-74
2021/05/29 02:38:25;;;;;;;14.55;11.68;;;;;;;15.58;100.00;99126.79;1565360;90;21028;-71
2021/05/29 02:40:51;;;;;;;15.55;12.30;;;;;;;15.60;100.00;99138.67;1592128;90;21024;-72
2021/05/29 02:43:18;;;;;;;12.53;11.18;;;;;;;15.61;100.00;99126.73;1585504;90;21081;-72
2021/05/29 02:45:44;;;;;;;13.08;11.05;;;;;;;15.65;100.00;99126.39;1585957;90;21581;-74
2021/05/29 02:48:12;;;;;;;17.50;11.22;;;;;;;15.65;100.00;99127.20;1586512;90;21148;-74
2021/05/29 02:50:39;;;;;;;13.98;10.70;;;;;;;15.65;100.00;99131.27;1586855;90;21593;-74
2021/05/29 02:53:07;;;;;;;9.88;8.78;;;;;;;15.66;100.00;99129.36;1586799;90;21625;-73
2021/05/29 02:55:35;;;;;;;11.88;9.33;;;;;;;15.71;100.00;99129.28;1582034;90;21167;-74
2021/05/29 02:58:01;;;;;;;10.85;9.10;;;;;;;15.76;100.00;99134.61;1562419;90;21081;-73
2021/05/29 03:00:45;;;;;;;11.38;10.18;;;;;;;15.82;100.00;99126.66;1571431;90;22249;-73
2021/05/29 03:03:12;;;;;;;11.22;10.03;;;;;;;15.89;100.00;99121.63;1586760;90;21661;-73
2021/05/29 03:05:44;;;;;;;11.75;10.55;;;;;;;16.00;100.00;99125.78;1586855;89;21617;-72
2021/05/29 03:08:12;;;;;;;10.85;9.78;;;;;;;16.08;100.00;99132.41;1609391;89;21149;-73
2021/05/29 03:10:40;;;;;;;8.20;7.40;;;;;;;16.07;100.00;99132.16;1598996;88;21686;-73
2021/05/29 03:13:08;;;;;;;9.40;7.95;;;;;;;16.10;100.00;99124.79;1610631;89;21136;-73
2021/05/29 03:15:35;;;;;;;7.97;7.15;;;;;;;16.09;100.00;99125.89;1599616;89;21105;-74
2021/05/29 03:18:03;;;;;;;13.53;9.45;;;;;;;16.08;100.00;99121.56;1611863;89;21021;-75
2021/05/29 03:20:30;;;;;;;10.35;9.25;;;;;;;16.07;100.00;99129.44;1597153;89;21065;-74
2021/05/29 03:22:56;;;;;;;10.58;9.43;;;;;;;16.07;100.00;99121.30;1594421;89;21596;-74
2021/05/29 03:25:23;;;;;;;12.58;8.68;;;;;;;16.05;100.00;99117.55;1577884;89;21395;-84
2021/05/29 03:27:52;;;;;;;9.03;8.13;;;;;;;16.07;100.00;99118.59;1609866;89;21403;-73
2021/05/29 03:30:25;;;;;;;12.30;8.98;;;;;;;16.09;100.00;99132.13;1589867;89;20989;-72
2021/05/29 03:32:52;;;;;;;11.60;8.58;;;;;;;16.15;100.00;99130.13;1609539;89;21113;-73
2021/05/29 03:35:18;;;;;;;10.18;9.20;;;;;;;16.19;100.00;99131.67;1597730;88;21092;-80
2021/05/29 03:37:45;;;;;;;9.58;8.60;;;;;;;16.20;100.00;99124.61;1610163;89;21115;-74
2021/05/29 03:40:13;;;;;;;8.78;7.40;;;;;;;16.21;100.00;99126.19;1598305;89;21032;-73
2021/05/29 03:42:40;;;;;;;11.70;10.50;;;;;;;16.25;100.00;99127.77;1600360;89;21040;-73
2021/05/29 03:45:09;;;;;;;11.43;9.25;;;;;;;16.28;100.00;99127.16;1611023;89;21172;-73
2021/05/29 03:47:37;;;;;;;10.75;9.68;;;;;;;16.33;100.00;99136.56;1598984;89;21693;-73
2021/05/29 03:50:04;;;;;;;8.90;8.00;;;;;;;16.39;100.00;99127.23;1609931;89;21180;-72
2021/05/29 03:52:30;;;;;;;13.48;10.03;;;;;;;16.42;100.00;99141.53;1598772;89;21038;-74
2021/05/29 03:54:57;;;;;;;11.33;9.68;;;;;;;16.43;100.00;99131.74;1609331;89;20993;-74
2021/05/29 03:57:24;;;;;;;18.87;15.53;;;;;;;16.43;100.00;99122.25;1600293;89;21650;-75
2021/05/29 03:59:50;;;;;;;11.15;10.10;;;;;;;16.47;100.00;99136.01;1590637;89;21092;-72
2021/05/29 04:02:17;;;;;;;12.33;10.85;;;;;;;16.49;100.00;99141.41;1580439;89;22315;-72
2021/05/29 04:04:43;;;;;;;12.53;10.65;;;;;;;16.51;100.00;99128.31;1611062;87;21030;-72
2021/05/29 04:07:11;;;;;;;16.60;9.53;;;;;;;16.54;100.00;99136.42;1592074;88;21001;-73
2021/05/29 04:09:39;;;;;;;13.15;10.25;;;;;;;16.56;100.00;99135.00;1585908;89;21125;-72
2021/05/29 04:12:08;;;;;;;10.25;8.90;;;;;;;16.58;100.00;99133.38;1595994;89;21144;-71
2021/05/29 04:14:35;;;;;;;10.82;9.08;;;;;;;16.58;100.00;99130.67;1594816;89;21720;-72
2021/05/29 04:17:03;;;;;;;11.88;10.18;;;;;;;16.57;100.00;99139.33;1588828;89;21132;-73
2021/05/29 04:19:29;;;;;;;12.03;9.50;;;;;;;16.57;100.00;99135.81;1574695;90;21056;-72
2021/05/29 04:21:56;;;;;;;9.33;8.53;;;;;;;16.56;100.00;99135.55;1574530;90;21109;-75
2021/05/29 04:24:22;;;;;;;11.20;10.08;;;;;;;16.56;100.00;99146.41;1571181;89;21015;-74
2021/05/29 04:26:50;;;;;;;11.90;10.08;;;;;;;16.55;100.00;99132.58;1571010;90;21111;-73
2021/05/29 04:29:16;;;;;;;9.78;8.78;;;;;;;16.57;100.00;99139.88;1592632;89;21148;-70
2021/05/29 04:31:42;;;;;;;13.83;11.68;;;;;;;16.60;100.00;99137.94;1583313;89;21600;-72
2021/05/29 04:34:09;;;;;;;11.50;10.30;;;;;;;16.63;100.00;99138.71;1579209;90;21089;-73
2021/05/29 04:36:35;;;;;;;15.75;10.85;;;;;;;16.66;100.00;99135.38;1570073;89;21612;-72
2021/05/29 04:39:01;;;;;;;14.25;11.22;;;;;;;16.69;100.00;99140.77;1596105;89;21158;-73
2021/05/29 04:41:29;;;;;;;14.43;10.28;;;;;;;16.69;100.00;99133.41;1596122;89;21601;-73
2021/05/29 04:43:56;;;;;;;11.33;10.05;;;;;;;16.73;100.00;99135.79;1595649;89;21040;-73
2021/05/29 04:46:22;;;;;;;10.55;9.20;;;;;;;16.78;100.00;99147.91;1594665;89;21177;-73
2021/05/29 04:48:49;;;;;;;13.08;10.68;;;;;;;16.80;100.00;99147.58;1583043;89;21647;-72
2021/05/29 04:51:15;;;;;;;12.00;9.80;;;;;;;16.79;100.00;99148.68;1586253;89;21128;-79
2021/05/29 04:53:43;;;;;;;9.35;8.38;;;;;;;16.77;100.00;99159.06;1581896;89;21005;-72
2021/05/29 04:56:14;;;;;;;9.55;8.30;;;;;;;16.67;100.00;99143.78;1596003;89;21612;-72
2021/05/29 04:58:41;;;;;;;9.20;8.05;;;;;;;16.63;100.00;99155.55;1595424;89;21094;-73
2021/05/29 05:01:09;;;;;;;5.60;5.10;;;;;;;16.45;100.00;99170.23;1584101;88;21176;-73
2021/05/29 05:03:38;;;;;;;6.37;5.50;;;;;;;16.27;100.00;99180.63;1571055;90;21100;-72
2021/05/29 05:06:06;;;;;;;9.13;5.03;;;;;;;16.19;100.00;99171.02;1572362;89;21115;-79
2021/05/29 05:08:32;;;;;;;5.20;4.67;;;;;;;16.08;100.00;99178.53;1601745;89;21063;-72
2021/05/29 05:11:01;;;;;;;7.90;5.97;;;;;;;16.03;100.00;99174.00;1611047;89;21561;-73
2021/05/29 05:13:30;;;;;;;13.32;4.45;;;;;;;15.97;100.00;99181.19;1591165;89;21048;-71
2021/05/29 05:15:56;;;;;;;5.08;4.58;;;;;;;15.89;100.00;99178.59;1580478;89;21021;-74
2021/05/29 05:18:23;;;;;;;5.58;3.95;;;;;;;15.88;100.00;99176.97;1611093;89;21569;-74
2021/05/29 05:20:50;;;;;;;4.78;4.37;;;;;;;15.91;100.00;99183.72;1600221;89;21125;-73
2021/05/29 05:23:21;;;;;;;8.43;4.37;;;;;;;15.89;100.00;99189.44;1610743;87;21627;-74
2021/05/29 05:25:45;;;;;;;5.47;4.33;;;;;;;15.87;100.00;99180.81;1584335;89;21665;-70
2021/05/29 05:28:12;;;;;;;4.05;3.65;;;;;;;15.86;100.00;99187.88;1606401;87;21170;-70
2021/05/29 05:30:38;;;;;;;3.92;3.58;;;;;;;15.80;100.00;99189.05;1613182;87;21008;-72
2021/05/29 05:33:06;;;;;;;4.50;4.10;;;;;;;15.65;100.00;99191.45;1600384;88;21010;-73
2021/05/29 05:35:32;;;;;;;5.53;3.45;;;;;;;15.63;100.00;99199.09;1591061;89;21625;-72
2021/05/29 05:37:59;;;;;;;7.12;4.05;;;;;;;15.58;100.00;99191.03;1592780;89;21070;-74
2021/05/29 05:40:25;;;;;;;8.98;4.08;;;;;;;15.50;99.62;99184.33;1609646;87;21697;-73
2021/05/29 05:42:52;;;;;;;10.82;4.15;;;;;;;15.40;99.69;99199.38;1600400;88;21029;-71
2021/05/29 05:45:19;;;;;;;4.80;2.70;;;;;;;15.42;100.00;99199.91;1609527;89;21135;-71
2021/05/29 05:47:45;;;;;;;7.45;4.95;;;;;;;15.42;100.00;99208.58;1576827;89;21129;-73
2021/05/29 05:50:12;;;;;;;7.60;3.25;;;;;;;15.39;99.63;99199.70;1600916;89;21088;-71
2021/05/29 05:52:38;;;;;;;6.17;3.52;;;;;;;15.35;99.56;99200.81;1610132;89;21104;-72
2021/05/29 05:55:06;;;;;;;6.17;3.35;;;;;;;15.38;99.85;99204.85;1579131;89;21586;-72
2021/05/29 05:57:34;;;;;;;9.95;4.95;;;;;;;15.34;100.00;99207.89;1609574;89;20942;-74
2021/05/29 06:00:03;;;;;;;5.90;2.77;;;;;;;15.38;100.00;99205.66;1591121;89;21136;-73
2021/05/29 06:02:30;;;;;;;8.03;5.05;;;;;;;15.34;98.14;99202.48;1599156;89;21692;-72
2021/05/29 06:04:56;;;;;;;3.77;3.05;;;;;;;15.34;98.27;99208.70;1609576;89;20990;-73
2021/05/29 06:07:23;;;;;;;4.42;3.47;;;;;;;15.38;97.98;99215.14;1580322;89;21021;-75
2021/05/29 06:09:49;;;;;;;3.37;2.58;;;;;;;15.44;98.14;99205.85;1587693;89;21598;-73
2021/05/29 06:12:17;;;;;;;5.97;3.80;;;;;;;15.45;96.76;99218.28;1605936;88;21626;-72
2021/05/29 06:20:15;;;;;;;10.48;3.77;;;;;;;15.33;97.38;99221.18;1587836;89;21617;-71
2021/05/29 06:22:41;;;;;;;2.72;2.52;;;;;;;15.35;97.40;99214.36;1606763;89;21112;-72
2021/05/29 06:25:13;;;;;;;4.35;2.60;;;;;;;15.40;97.58;99216.99;1607199;88;21133;-76
2021/05/29 06:27:39;;;;;;;4.17;3.35;;;;;;;15.47;97.37;99227.48;1599339;88;21076;-73
2021/05/29 06:30:10;;;;;;;5.47;2.98;;;;;;;15.50;96.98;99226.88;1582051;90;21873;-73
2021/05/29 06:32:36;;;;;;;8.43;3.20;;;;;;;15.50;97.07;99221.47;1602923;89;21125;-75
2021/05/29 06:35:04;;;;;;;5.03;3.47;;;;;;;15.52;97.10;99226.09;1587843;89;21613;-71
2021/05/29 06:37:31;;;;;;;2.90;2.60;;;;;;;15.51;96.87;99225.83;1605936;89;21644;-69
2021/05/29 06:39:57;;;;;;;4.53;2.98;;;;;;;15.57;96.64;99214.63;1605867;88;21156;-71
2021/05/29 06:42:24;;;;;;;4.28;2.95;;;;;;;15.61;95.79;99218.91;1605428;88;21676;-72
2021/05/29 06:44:51;;;;;;;4.65;2.75;;;;;;;15.58;94.93;99226.27;1599646;89;21108;-71
2021/05/29 06:47:17;;;;;;;5.67;2.77;;;;;;;15.62;95.25;99224.59;1602407;89;21068;-71
2021/05/29 06:49:44;;;;;;;2.50;2.15;;;;;;;15.72;95.47;99229.86;1606553;88;21149;-72
2021/05/29 06:52:13;;;;;;;4.12;3.67;;;;;;;15.76;94.92;99228.16;1606619;89;21105;-70
2021/05/29 06:59:53;;;;;;;4.60;2.95;;;;;;;16.11;93.20;99235.70;1607501;88;21004;-73
2021/05/29 07:02:19;;;;;;;4.30;2.62;;;;;;;16.11;92.26;99231.63;1606466;89;21189;-74
2021/05/29 07:04:46;;;;;;;2.98;2.65;;;;;;;16.14;92.43;99228.34;1607247;88;21048;-73
2021/05/29 07:07:12;;;;;;;3.08;2.83;;;;;;;16.17;92.01;99235.07;1602925;88;21649;-72
2021/05/29 07:09:39;;;;;;;4.72;2.98;;;;;;;16.16;91.93;99236.20;1585659;88;21039;-70
2021/05/29 07:12:07;;;;;;;5.12;2.80;;;;;;;16.27;92.29;99238.16;1571336;90;21066;-70
2021/05/29 07:14:33;;;;;;;2.92;2.72;;;;;;;16.38;91.30;99245.84;1571407;90;21485;-71
2021/05/29 07:17:02;;;;;;;3.75;2.50;;;;;;;16.34;89.54;99239.95;1585395;90;21094;-71
2021/05/29 07:19:28;;;;;;;2.50;2.30;;;;;;;16.31;88.83;99245.41;1585556;90;21677;-71
2021/05/29 07:21:54;;;;;;;3.45;2.95;;;;;;;16.31;88.76;99236.45;1571429;90;21029;-71
2021/05/29 07:24:21;;;;;;;2.47;2.27;;;;;;;16.32;89.11;99240.23;1586834;90;21585;-68
2021/05/29 07:26:48;;;;;;;3.50;2.30;;;;;;;16.43;88.60;99244.39;1586842;90;21648;-71
2021/05/29 07:29:15;;;;;;;3.02;2.55;;;;;;;16.59;88.11;99245.51;1571461;90;21546;-71
2021/05/29 07:31:43;;;;;;;2.20;1.67;;;;;;;16.72;86.69;99258.28;1566726;90;22299;-72
2021/05/29 07:34:09;;;;;;;2.90;2.15;;;;;;;16.67;85.21;99253.76;1562327;91;21140;-71
2021/05/29 07:36:36;;;;;;;3.92;1.80;;;;;;;16.72;85.43;99250.95;1548346;91;21113;-70
2021/05/29 07:39:03;;;;;;;1.98;1.67;;;;;;;16.80;84.74;99249.43;1562432;90;21612;-71
2021/05/29 07:41:29;;;;;;;3.25;2.05;;;;;;;16.83;83.71;99242.06;1548505;91;21249;-72
2021/05/29 07:43:56;;;;;;;2.08;1.87;;;;;;;16.90;84.52;99247.88;1578579;90;21744;-70
2021/05/29 07:46:23;;;;;;;2.72;2.10;;;;;;;16.99;84.82;99247.42;1562404;90;21133;-71
2021/05/29 07:48:51;;;;;;;2.85;2.33;;;;;;;17.03;83.80;99240.27;1562451;91;21077;-70
2021/05/29 07:51:18;;;;;;;7.08;1.80;;;;;;;16.98;81.99;99244.45;1572068;90;21084;-70
2021/05/29 07:53:45;;;;;;;3.83;2.27;;;;;;;16.98;81.95;99252.59;1569231;90;21222;-71
2021/05/29 07:56:17;;;;;;;2.77;2.47;;;;;;;17.00;82.45;99239.53;1563861;90;21778;-70
2021/05/29 07:58:47;;;;;;;2.83;1.97;;;;;;;17.00;82.35;99252.56;1567662;91;21718;-69
2021/05/29 08:01:15;;;;;;;3.02;1.65;;;;;;;16.98;82.34;99244.45;1577770;90;21436;-71
2021/05/29 08:03:41;;;;;;;2.25;1.82;;;;;;;17.00;82.49;99255.28;1586463;89;21049;-72
2021/05/29 08:06:13;;;;;;;2.15;1.98;;;;;;;17.10;83.14;99254.81;1572371;90;21125;-68
2021/05/29 08:08:37;;;;;;;1.92;1.82;;;;;;;17.20;83.22;99248.63;1596015;89;21278;-68
2021/05/29 08:11:04;;;;;;;5.28;1.85;;;;;;;17.32;82.49;99252.97;1611434;89;21675;-70
2021/05/29 08:13:31;;;;;;;2.67;2.15;;;;;;;17.33;79.91;99259.21;1611044;89;21167;-69
2021/05/29 08:15:58;;;;;;;1.45;1.35;;;;;;;17.23;79.74;99281.98;1590926;89;21659;-67
2021/05/29 08:18:26;;;;;;;1.20;1.12;;;;;;;17.21;79.76;99265.19;1600239;89;21180;-69
2021/05/29 08:20:53;;;;;;;2.87;2.30;;;;;;;17.28;79.41;99264.20;1610712;87;21141;-70
2021/05/29 08:23:20;;;;;;;1.98;1.67;;;;;;;17.37;79.53;99275.97;1600215;88;21054;-70
2021/05/29 08:25:46;;;;;;;2.55;1.55;;;;;;;17.44;78.02;99279.64;1591203;89;21128;-69
2021/05/29 08:28:14;;;;;;;2.02;1.82;;;;;;;17.42;76.95;99267.70;1610598;89;21077;-71
2021/05/29 08:30:40;;;;;;;5.28;1.90;;;;;;;17.46;77.50;99262.45;1609913;89;21148;-71
2021/05/29 08:33:07;;;;;;;3.25;1.50;;;;;;;17.48;77.10;99279.28;1609622;89;21358;-69
2021/05/29 08:35:35;;;;;;;2.55;1.62;;;;;;;17.52;77.57;99276.75;1589223;89;21435;-68
2021/05/29 08:38:03;;;;;;;1.98;1.62;;;;;;;17.49;77.25;99263.22;1599355;89;21105;-72
2021/05/29 08:40:30;;;;;;;2.33;1.85;;;;;;;17.49;77.65;99268.66;1609789;87;21660;-68
2021/05/29 08:42:57;;;;;;;2.47;2.27;;;;;;;17.50;77.04;99271.64;1598846;89;21069;-70
2021/05/29 08:45:23;;;;;;;2.00;1.50;;;;;;;17.54;77.71;99284.06;1586531;90;21158;-71
2021/05/29 08:47:50;;;;;;;2.30;2.10;;;;;;;17.53;76.11;99283.25;1599658;89;21025;-71
2021/05/29 08:50:17;;;;;;;5.40;2.25;;;;;;;17.51;76.21;99272.41;1578629;89;21014;-70
2021/05/29 08:52:44;;;;;;;1.92;1.80;;;;;;;17.50;77.00;99270.27;1590283;89;21013;-73
2021/05/29 08:55:13;;;;;;;7.42;2.95;;;;;;;17.49;77.36;99282.81;1599660;89;21129;-70
2021/05/29 08:57:39;;;;;;;3.08;2.33;;;;;;;17.44;77.73;99289.16;1608233;89;22309;-70
2021/05/29 09:00:09;;;;;;;3.87;2.15;;;;;;;17.30;77.96;99283.75;1586826;88;21115;-70
2021/05/29 09:03:01;;;;;;;2.65;2.37;;;;;;;17.24;78.59;99287.67;1589797;89;21033;-68
2021/05/29 09:05:52;;;;;;;4.83;3.15;;;;;;;17.25;78.79;99299.34;1609082;89;21098;-70
2021/05/29 09:08:24;;;;;;;2.40;2.20;;;;;;;17.20;78.49;99301.62;1588512;89;21328;-69
2021/05/29 09:10:55;;;;;;;4.33;2.30;;;;;;;17.07;78.02;99292.92;1610859;89;21650;-70
2021/05/29 09:13:26;;;;;;;2.22;1.90;;;;;;;17.04;78.59;99297.58;1591647;89;21624;-68
2021/05/29 09:15:58;;;;;;;4.20;1.92;;;;;;;17.11;78.55;99283.61;1598661;89;21104;-69
2021/05/29 09:18:40;;;;;;;2.53;2.13;;;;;;;17.23;78.79;99269.75;1607412;89;20985;-67
2021/05/29 09:21:33;;;;;;;2.92;2.12;;;;;;;17.32;77.27;99288.30;1579472;89;21477;-69
2021/05/29 09:24:16;;;;;;;2.50;2.30;;;;;;;17.33;75.73;99298.08;1589514;89;21112;-68
2021/05/29 09:26:52;;;;;;;2.40;2.00;;;;;;;17.33;75.87;99289.11;1603140;89;21033;-69
2021/05/29 09:29:26;;;;;;;2.08;1.92;;;;;;;17.32;76.05;99291.02;1593559;89;21712;-69
2021/05/29 09:32:01;;;;;;;1.87;1.57;;;;;;;17.36;75.80;99302.12;1610656;89;21578;-69
2021/05/29 09:34:46;;;;;;;1.92;1.82;;;;;;;17.37;75.97;99281.95;1608510;87;21144;-67
2021/05/29 09:37:28;;;;;;;1.98;1.87;;;;;;;17.43;75.03;99284.27;1569950;91;21803;-69
2021/05/29 09:40:06;;;;;;;3.10;2.30;;;;;;;17.55;74.76;99293.83;1585395;89;21620;-69
2021/05/29 09:42:39;;;;;;;1.52;1.40;;;;;;;17.55;72.82;99296.00;1573864;89;21785;-70
2021/05/29 09:45:25;;;;;;;3.85;2.20;;;;;;;17.60;71.56;99296.47;1604880;89;26581;-68
2021/05/29 09:48:20;;;;;;;1.52;1.42;;;;;;;17.64;71.27;99297.47;1601625;87;21166;-70
2021/05/29 09:51:10;;;;;;;1.80;1.70;;;;;;;17.67;70.83;99286.77;1584508;89;21020;-69
2021/05/29 09:53:40;;;;;;;1.70;1.60;;;;;;;17.74;70.44;99293.97;1612282;87;21050;-69
2021/05/29 09:56:10;;;;;;;4.75;2.15;;;;;;;17.81;71.11;99294.89;1616413;87;21100;-72
2021/05/29 09:59:00;;;;;;;2.77;1.90;;;;;;;17.92;71.72;99309.08;1589959;87;21660;-72
2021/05/29 10:01:51;;;;;;;4.03;1.87;;;;;;;17.97;72.03;99305.69;1592402;89;21113;-73
2021/05/29 10:04:40;;;;;;;2.47;2.00;;;;;;;17.98;72.16;99306.49;1611128;89;21134;-71
2021/05/29 10:07:12;;;;;;;2.25;1.87;;;;;;;17.95;72.09;99309.25;1600110;89;21017;-72
2021/05/29 10:09:42;;;;;;;2.50;2.30;;;;;;;17.96;72.49;99305.43;1610343;87;21131;-72
2021/05/29 10:12:09;;;;;;;4.90;3.10;;;;;;;18.03;72.28;99300.37;1595071;89;21065;-73
2021/05/29 10:14:36;;;;;;;4.40;2.72;;;;;;;18.03;71.48;99294.94;1594561;89;21656;-73
2021/05/29 10:17:11;;;;;;;6.40;2.42;;;;;;;17.98;71.57;99300.49;1592671;88;21190;-72
2021/05/29 10:19:41;;;;;;;5.15;2.92;;;;;;;17.96;72.16;99307.34;1594527;88;21128;-72
2021/05/29 10:22:13;;;;;;;6.45;3.45;;;;;;;18.02;72.37;99298.77;1592977;88;21639;-71
2021/05/29 10:24:40;;;;;;;4.62;2.85;;;;;;;18.14;71.21;99290.84;1590025;89;21119;-70
2021/05/29 10:27:12;;;;;;;2.85;2.15;;;;;;;18.20;70.62;99292.88;1564357;89;21086;-70
2021/05/29 10:29:40;;;;;;;2.27;2.08;;;;;;;18.25;70.22;99295.48;1594444;88;21164;-72
2021/05/29 10:32:18;;;;;;;2.20;1.98;;;;;;;18.29;70.07;99305.44;1581531;88;21248;-71
2021/05/29 10:35:09;;;;;;;10.75;2.42;;;;;;;18.28;69.38;99303.02;1592301;89;21592;-70
2021/05/29 10:37:43;;;;;;;4.53;2.37;;;;;;;18.22;69.24;99294.17;1594745;89;21578;-73
2021/05/29 10:40:26;;;;;;;3.30;2.20;;;;;;;18.11;68.24;99301.55;1581929;89;21124;-72
2021/05/29 10:43:15;;;;;;;2.87;2.60;;;;;;;18.07;68.78;99307.36;1594860;89;21663;-74
2021/05/29 10:45:58;;;;;;;5.12;3.25;;;;;;;18.01;68.25;99305.86;1586598;89;21583;-72
2021/05/29 10:48:27;;;;;;;3.25;2.58;;;;;;;18.02;68.32;99322.45;1594670;89;21092;-69
2021/05/29 10:53:54;;;;;;;2.35;2.17;;;;;;;18.14;67.23;99291.39;1594138;89;21141;-71
2021/05/29 10:56:27;;;;;;;4.17;2.37;;;;;;;18.12;67.37;99304.52;1591841;88;21362;-72
2021/05/29 10:59:10;;;;;;;2.63;2.07;;;;;;;18.13;68.84;99302.83;1579354;90;21084;-71
2021/05/29 11:01:40;;;;;;;3.42;2.52;;;;;;;18.18;69.06;99295.09;1570095;90;21117;-72
2021/05/29 11:04:18;;;;;;;3.87;2.65;;;;;;;18.20;69.44;99299.69;1570933;90;21112;-71
2021/05/29 11:07:10;;;;;;;5.87;3.00;;;;;;;18.27;69.73;99306.30;1571007;90;21144;-73
2021/05/29 11:09:47;;;;;;;4.85;2.52;;;;;;;18.38;70.13;99291.87;1580132;90;22325;-72
2021/05/29 11:12:13;;;;;;;3.27;2.98;;;;;;;18.51;69.10;99296.44;1564105;90;21168;-71
2021/05/29 11:14:55;;;;;;;3.95;2.85;;;;;;;18.57;68.89;99308.84;1562858;90;21145;-71
2021/05/29 11:17:26;;;;;;;4.72;2.42;;;;;;;18.60;68.67;99305.52;1562390;91;21104;-72
2021/05/29 11:20:15;;;;;;;3.85;2.60;;;;;;;18.58;67.81;99315.91;1562419;91;21620;-71
2021/05/29 11:22:48;;;;;;;4.97;2.35;;;;;;;18.56;67.55;99310.55;1548277;91;21126;-72
2021/05/29 11:25:18;;;;;;;1.67;1.57;;;;;;;18.50;67.29;99308.47;1562195;91;21021;-73
2021/05/29 11:27:47;;;;;;;2.75;2.20;;;;;;;18.44;65.90;99298.01;1548423;91;21164;-72
2021/05/29 11:30:33;;;;;;;2.30;2.10;;;;;;;18.45;66.63;99298.27;1548253;91;21103;-75
2021/05/29 11:35:47;;;;;;;5.78;3.27;;;;;;;18.59;66.95;99297.66;1568495;91;21229;-73
2021/05/29 11:38:35;;;;;;;6.05;3.17;;;;;;;18.67;66.98;99311.31;1562114;91;21133;-73
2021/05/29 11:41:12;;;;;;;2.92;2.62;;;;;;;18.72;65.91;99303.01;1548346;91;21094;-74
2021/05/29 11:43:56;;;;;;;4.28;2.00;;;;;;;18.73;66.00;99313.35;1562324;91;21101;-71
2021/05/29 11:46:30;;;;;;;2.15;2.02;;;;;;;18.69;64.95;99301.48;1561367;91;21649;-73
2021/05/29 11:49:03;;;;;;;2.15;2.02;;;;;;;18.59;65.00;99309.36;1547436;91;21132;-73
2021/05/29 11:51:36;;;;;;;2.52;2.30;;;;;;;18.49;65.20;99321.03;1548471;91;21008;-72
2021/05/29 11:54:14;;;;;;;5.72;3.85;;;;;;;18.46;65.93;99308.05;1555559;92;21642;-74